createdAt,value
2022-09-17T00:02:58.993Z,1.40
2022-09-17T00:06:03.212Z,1.33
2022-09-17T00:09:09.586Z,1.23
2022-09-17T00:12:12.480Z,1.27
2022-09-17T00:15:15.637Z,0.93
2022-09-17T00:18:18.464Z,1.05
2022-09-17T00:21:21.921Z,1.10
2022-09-17T00:24:26.175Z,1.10
2022-09-17T00:27:28.959Z,1.20
2022-09-17T00:30:31.804Z,1.35
2022-09-17T00:33:34.588Z,1.20
2022-09-17T00:36:38.617Z,1.08
2022-09-17T00:39:43.176Z,1.15
2022-09-17T00:42:46.179Z,1.17
2022-09-17T00:45:49.380Z,0.90
2022-09-17T00:48:53.864Z,1.05
2022-09-17T00:52:02.773Z,0.80
2022-09-17T00:55:14.112Z,1.40
2022-09-17T00:58:19.930Z,1.30
2022-09-17T01:01:22.816Z,0.90
2022-09-17T01:04:27.875Z,1.00
2022-09-17T01:07:46.995Z,1.00
2022-09-17T01:11:07.024Z,1.10
2022-09-17T01:14:22.103Z,1.10
2022-09-17T01:17:30.903Z,1.02
2022-09-17T01:21:04.531Z,1.30
2022-09-17T01:24:49.051Z,1.00
2022-09-17T01:28:22.013Z,1.10
2022-09-17T01:31:42.152Z,1.20
2022-09-17T01:34:54.901Z,1.00
2022-09-17T01:38:06.532Z,0.95
2022-09-17T01:41:17.041Z,1.05
2022-09-17T01:44:27.057Z,0.90
2022-09-17T01:47:38.734Z,1.13
2022-09-17T01:50:47.736Z,0.98
2022-09-17T01:53:57.850Z,1.00
2022-09-17T01:57:05.464Z,1.10
2022-09-17T02:00:11.140Z,0.98
2022-09-17T02:03:22.084Z,0.93
2022-09-17T02:06:30.930Z,0.90
2022-09-17T02:09:40.192Z,1.08
2022-09-17T02:12:47.781Z,1.00
2022-09-17T02:15:57.537Z,1.00
2022-09-17T02:19:07.584Z,1.10
2022-09-17T02:22:22.714Z,1.10
2022-09-17T02:25:30.135Z,0.90
2022-09-17T02:28:39.495Z,0.90
2022-09-17T02:31:42.525Z,1.17
2022-09-17T02:34:47.519Z,1.00
2022-09-17T02:37:53.128Z,1.20
2022-09-17T02:41:06.559Z,0.90
2022-09-17T02:44:22.615Z,0.98
2022-09-17T02:47:42.340Z,0.82
2022-09-17T02:51:03.757Z,1.00
2022-09-17T02:54:18.014Z,1.00
2022-09-17T02:57:28.198Z,1.10
2022-09-17T03:00:31.471Z,0.90
2022-09-17T03:03:39.288Z,0.93
2022-09-17T03:06:46.180Z,1.10
2022-09-17T03:09:49.032Z,0.90
2022-09-17T03:12:54.778Z,0.85
2022-09-17T03:15:57.695Z,1.30
2022-09-17T03:19:00.685Z,0.90
2022-09-17T03:22:04.893Z,0.98
2022-09-17T03:25:08.762Z,1.00
2022-09-17T03:28:11.578Z,1.05
2022-09-17T03:31:14.526Z,0.90
2022-09-17T03:34:17.803Z,1.00
2022-09-17T03:37:22.045Z,0.90
2022-09-17T03:40:24.940Z,0.98
2022-09-17T03:43:28.161Z,0.73
2022-09-17T03:46:30.991Z,1.10
2022-09-17T03:49:34.005Z,1.00
2022-09-17T03:52:38.299Z,0.85
2022-09-17T03:55:41.679Z,0.90
2022-09-17T03:58:44.541Z,0.90
2022-09-17T04:01:47.431Z,0.70
2022-09-17T04:04:50.273Z,0.70
2022-09-17T04:07:54.421Z,0.80
2022-09-17T04:10:57.192Z,0.90
2022-09-17T04:14:00.066Z,0.80
2022-09-17T04:17:02.833Z,0.98
2022-09-17T04:20:07.167Z,1.10
2022-09-17T04:23:12.931Z,0.70
2022-09-17T04:26:15.767Z,0.80
2022-09-17T04:29:18.551Z,0.95
2022-09-17T04:32:21.368Z,0.80
2022-09-17T04:35:24.152Z,0.82
2022-09-17T04:38:28.384Z,0.80
2022-09-17T04:41:31.165Z,0.90
2022-09-17T04:44:33.965Z,0.75
2022-09-17T04:47:39.715Z,0.90
2022-09-17T04:50:42.505Z,0.95
2022-09-17T04:53:46.793Z,0.90
2022-09-17T04:56:49.621Z,0.88
2022-09-17T04:59:52.580Z,1.00
2022-09-17T05:02:56.540Z,0.80
2022-09-17T05:05:59.817Z,0.75
2022-09-17T05:09:04.033Z,0.88
2022-09-17T05:12:07.067Z,0.73
2022-09-17T05:15:10.316Z,0.88
2022-09-17T05:18:13.270Z,1.00
2022-09-17T05:21:16.192Z,1.00
2022-09-17T05:24:20.339Z,0.98
2022-09-17T05:27:23.236Z,0.88
2022-09-17T05:30:26.025Z,0.95
2022-09-17T05:33:29.056Z,0.90
2022-09-17T05:36:31.860Z,0.90
2022-09-17T05:39:36.005Z,0.85
2022-09-17T05:42:38.853Z,0.77
2022-09-17T05:45:41.925Z,0.90
2022-09-17T05:48:44.723Z,1.00
2022-09-17T05:51:48.320Z,0.90
2022-09-17T05:54:52.491Z,0.82
2022-09-17T05:57:55.286Z,0.77
2022-09-17T06:01:02.214Z,0.90
2022-09-17T06:04:05.014Z,0.88
2022-09-17T06:07:08.531Z,0.70
2022-09-17T06:10:12.757Z,0.73
2022-09-17T06:13:15.529Z,0.90
2022-09-17T06:16:18.352Z,0.70
2022-09-17T06:19:21.247Z,0.60
2022-09-17T06:22:24.049Z,0.90
2022-09-17T06:25:29.473Z,0.80
2022-09-17T06:28:35.802Z,0.63
2022-09-17T06:31:40.863Z,0.90
2022-09-17T06:34:43.909Z,0.90
2022-09-17T06:37:46.719Z,0.90
2022-09-17T06:40:53.237Z,0.90
2022-09-17T06:43:56.065Z,0.82
2022-09-17T06:46:58.924Z,0.90
2022-09-17T06:50:01.792Z,0.90
2022-09-17T06:53:04.585Z,1.25
2022-09-17T06:56:10.323Z,1.15
2022-09-17T06:59:13.082Z,1.20
2022-09-17T07:02:15.953Z,1.10
2022-09-17T07:05:18.761Z,1.17
2022-09-17T07:08:21.659Z,1.05
2022-09-17T07:11:26.074Z,0.80
2022-09-17T07:14:28.853Z,0.80
2022-09-17T07:17:31.655Z,0.90
2022-09-17T07:20:34.456Z,0.98
2022-09-17T07:23:38.267Z,0.65
2022-09-17T07:26:42.479Z,0.80
2022-09-17T07:29:45.270Z,0.80
2022-09-17T07:32:48.219Z,0.80
2022-09-17T07:35:55.296Z,0.70
2022-09-17T07:38:58.045Z,0.70
2022-09-17T07:42:03.586Z,0.98
2022-09-17T07:45:07.519Z,0.80
2022-09-17T07:48:10.282Z,0.90
2022-09-17T07:51:16.895Z,0.93
2022-09-17T07:54:20.249Z,0.77
2022-09-17T07:57:24.434Z,0.85
2022-09-17T08:00:27.228Z,0.73
2022-09-17T08:03:30.193Z,1.13
2022-09-17T08:06:33.331Z,0.90
2022-09-17T08:09:36.123Z,1.05
2022-09-17T08:12:40.335Z,0.98
2022-09-17T08:15:43.153Z,0.90
2022-09-17T08:18:48.458Z,1.00
2022-09-17T08:21:51.795Z,1.20
2022-09-17T08:24:54.621Z,1.10
2022-09-17T08:27:58.801Z,1.08
2022-09-17T08:31:02.844Z,1.15
2022-09-17T08:34:09.312Z,1.10
2022-09-17T08:37:12.068Z,1.20
2022-09-17T08:40:20.950Z,1.20
2022-09-17T08:43:26.477Z,0.93
2022-09-17T08:46:32.832Z,1.17
2022-09-17T08:49:37.848Z,1.15
2022-09-17T08:53:07.173Z,1.15
2022-09-17T08:56:14.749Z,1.73
2022-09-17T08:59:26.345Z,4.00
2022-09-17T09:02:45.108Z,4.88
2022-09-17T09:05:52.423Z,5.03
2022-09-17T09:09:00.167Z,4.13
2022-09-17T09:12:07.771Z,3.05
2022-09-17T09:15:24.713Z,3.60
2022-09-17T09:18:30.795Z,2.67
2022-09-17T09:21:43.457Z,2.75
2022-09-17T09:24:54.729Z,2.67
2022-09-17T09:28:16.290Z,2.28
2022-09-17T09:31:35.113Z,2.17
2022-09-17T09:34:38.905Z,2.08
2022-09-17T09:37:45.591Z,1.70
2022-09-17T09:40:54.853Z,1.60
2022-09-17T09:44:12.489Z,1.90
2022-09-17T09:47:30.769Z,1.85
2022-09-17T09:51:05.239Z,1.80
2022-09-17T09:54:19.720Z,1.55
2022-09-17T09:57:33.057Z,1.17
2022-09-17T10:00:39.313Z,1.80
2022-09-17T10:03:46.111Z,1.88
2022-09-17T10:06:51.432Z,1.33
2022-09-17T10:10:09.829Z,1.40
2022-09-17T10:13:14.891Z,1.70
2022-09-17T10:16:19.823Z,1.80
2022-09-17T10:19:25.602Z,1.40
2022-09-17T10:22:31.576Z,1.52
2022-09-17T10:25:35.833Z,1.73
2022-09-17T10:28:47.845Z,1.52
2022-09-17T10:31:52.816Z,1.60
2022-09-17T10:35:04.346Z,1.58
2022-09-17T10:38:27.153Z,1.45
2022-09-17T10:41:30.087Z,1.48
2022-09-17T10:44:34.460Z,1.70
2022-09-17T10:47:42.427Z,1.35
2022-09-17T10:50:51.419Z,1.40
2022-09-17T10:54:16.094Z,1.65
2022-09-17T10:57:29.945Z,1.30
2022-09-17T11:00:44.985Z,1.40
2022-09-17T11:04:11.592Z,1.48
2022-09-17T11:07:34.902Z,1.33
2022-09-17T11:10:44.458Z,1.40
2022-09-17T11:13:55.646Z,1.48
2022-09-17T11:17:12.361Z,1.50
2022-09-17T11:20:30.062Z,1.27
2022-09-17T11:23:53.128Z,1.38
2022-09-17T11:27:03.648Z,1.17
2022-09-17T11:30:15.888Z,1.40
2022-09-17T11:33:40.788Z,1.50
2022-09-17T11:36:51.927Z,1.30
2022-09-17T11:40:01.559Z,1.40
2022-09-17T11:43:13.650Z,1.15
2022-09-17T11:46:22.166Z,1.30
2022-09-17T11:49:34.078Z,1.15
2022-09-17T11:52:42.802Z,1.25
2022-09-17T11:55:51.930Z,1.40
2022-09-17T11:59:03.127Z,1.10
2022-09-17T12:02:15.921Z,1.70
2022-09-17T12:05:23.693Z,1.58
2022-09-17T12:08:30.357Z,1.50
2022-09-17T12:11:41.101Z,1.27
2022-09-17T12:14:50.129Z,1.42
2022-09-17T12:18:27.810Z,1.20
2022-09-17T12:21:28.874Z,1.08
2022-09-17T12:24:33.146Z,1.35
2022-09-17T12:27:42.513Z,1.27
2022-09-17T12:30:56.123Z,1.20
2022-09-17T12:34:10.371Z,1.35
2022-09-17T12:37:21.263Z,1.20
2022-09-17T12:40:34.960Z,1.30
2022-09-17T12:43:54.777Z,1.30
2022-09-17T12:47:12.934Z,1.10
2022-09-17T12:50:21.661Z,1.20
2022-09-17T12:53:30.224Z,1.10
2022-09-17T12:56:54.850Z,1.20
2022-09-17T13:00:07.925Z,1.35
2022-09-17T13:03:22.024Z,1.90
2022-09-17T13:06:44.854Z,1.00
2022-09-17T13:10:13.762Z,1.10
2022-09-17T13:13:33.465Z,1.27
2022-09-17T13:16:43.458Z,1.10
2022-09-17T13:19:59.487Z,1.35
2022-09-17T13:23:02.357Z,1.05
2022-09-17T13:26:08.121Z,1.20
2022-09-17T13:29:11.550Z,1.38
2022-09-17T13:32:43.706Z,1.30
2022-09-17T13:35:52.813Z,1.20
2022-09-17T13:38:55.835Z,1.15
2022-09-17T13:42:06.024Z,1.30
2022-09-17T13:45:13.602Z,1.27
2022-09-17T13:48:22.786Z,1.02
2022-09-17T13:51:50.411Z,1.08
2022-09-17T13:54:53.268Z,1.08
2022-09-17T13:57:59.167Z,1.17
2022-09-17T14:01:03.619Z,1.20
2022-09-17T14:04:47.672Z,1.20
2022-09-17T14:07:51.955Z,1.10
2022-09-17T14:10:54.754Z,1.40
2022-09-17T14:13:58.388Z,1.23
2022-09-17T14:17:01.197Z,1.00
2022-09-17T14:20:06.337Z,0.80
2022-09-17T14:23:13.359Z,1.27
2022-09-17T14:26:26.506Z,1.40
2022-09-17T14:29:43.653Z,1.30
2022-09-17T14:32:54.463Z,1.10
2022-09-17T14:36:02.897Z,1.10
2022-09-17T14:39:14.775Z,1.27
2022-09-17T14:42:21.027Z,1.08
2022-09-17T14:45:27.970Z,0.90
2022-09-17T14:48:32.976Z,1.02
2022-09-17T14:51:41.749Z,1.23
2022-09-17T14:54:44.712Z,0.98
2022-09-17T14:57:50.836Z,0.82
2022-09-17T15:00:54.503Z,1.20
2022-09-17T15:04:12.052Z,1.13
2022-09-17T15:07:16.223Z,1.05
2022-09-17T15:10:21.237Z,1.08
2022-09-17T15:13:28.262Z,1.08
2022-09-17T15:16:33.303Z,1.10
2022-09-17T15:19:39.773Z,1.10
2022-09-17T15:22:46.888Z,1.15
2022-09-17T15:25:53.992Z,1.42
2022-09-17T15:28:58.334Z,0.93
2022-09-17T15:32:04.846Z,1.02
2022-09-17T15:35:23.449Z,1.00
2022-09-17T15:38:29.373Z,1.20
2022-09-17T15:41:34.669Z,0.90
2022-09-17T15:44:38.755Z,1.00
2022-09-17T15:47:53.936Z,1.10
2022-09-17T15:50:57.859Z,0.80
2022-09-17T15:54:04.947Z,0.90
2022-09-17T15:57:15.056Z,1.00
2022-09-17T16:00:20.092Z,1.20
2022-09-17T16:04:05.264Z,0.70
2022-09-17T16:07:29.529Z,0.90
2022-09-17T16:10:33.850Z,0.88
2022-09-17T16:13:36.908Z,1.00
2022-09-17T16:16:39.734Z,1.00
2022-09-17T16:19:42.924Z,1.17
2022-09-17T16:22:47.885Z,0.70
2022-09-17T16:25:52.887Z,0.90
2022-09-17T16:29:02.657Z,1.02
2022-09-17T16:32:05.617Z,1.00
2022-09-17T16:35:12.859Z,1.02
2022-09-17T16:38:17.947Z,1.00
2022-09-17T16:41:22.073Z,1.00
2022-09-17T16:44:24.845Z,0.70
2022-09-17T16:47:27.783Z,0.88
2022-09-17T16:50:30.845Z,0.85
2022-09-17T16:53:34.647Z,0.70
2022-09-17T16:56:38.815Z,0.90
2022-09-17T16:59:41.599Z,0.93
2022-09-17T17:02:45.147Z,1.00
2022-09-17T17:05:48.094Z,0.85
2022-09-17T17:08:51.720Z,1.13
2022-09-17T17:11:56.085Z,1.17
2022-09-17T17:14:58.872Z,0.80
2022-09-17T17:18:01.667Z,0.90
2022-09-17T17:21:08.020Z,0.65
2022-09-17T17:24:12.204Z,0.90
2022-09-17T17:27:16.327Z,0.90
2022-09-17T17:30:19.170Z,1.23
2022-09-17T17:33:21.931Z,0.98
2022-09-17T17:36:24.686Z,0.80
2022-09-17T17:39:27.582Z,0.90
2022-09-17T17:42:37.172Z,1.02
2022-09-17T17:45:40.511Z,0.60
2022-09-17T17:48:43.759Z,0.90
2022-09-17T17:51:46.545Z,0.90
2022-09-17T17:54:49.541Z,0.70
2022-09-17T17:58:01.089Z,0.90
2022-09-17T18:01:10.970Z,1.00
2022-09-17T18:04:13.858Z,0.63
2022-09-17T18:07:16.637Z,0.80
2022-09-17T18:10:19.766Z,0.60
2022-09-17T18:13:24.812Z,0.90
2022-09-17T18:16:27.724Z,0.70
2022-09-17T18:19:30.613Z,0.98
2022-09-17T18:22:33.460Z,1.00
2022-09-17T18:25:36.266Z,0.80
2022-09-17T18:28:40.819Z,0.80
2022-09-17T18:31:44.640Z,0.90
2022-09-17T18:34:47.497Z,1.00
2022-09-17T18:37:50.325Z,0.90
2022-09-17T18:40:53.413Z,0.73
2022-09-17T18:43:59.746Z,0.98
2022-09-17T18:47:02.688Z,0.90
2022-09-17T18:50:05.988Z,0.77
2022-09-17T18:53:08.801Z,0.60
2022-09-17T18:56:15.876Z,0.80
2022-09-17T18:59:20.025Z,0.90
2022-09-17T19:02:22.900Z,0.88
2022-09-17T19:05:25.878Z,0.80
2022-09-17T19:08:29.082Z,0.88
2022-09-17T19:11:31.893Z,0.80
2022-09-17T19:14:36.138Z,0.70
2022-09-17T19:17:39.883Z,0.80
2022-09-17T19:20:42.666Z,0.88
2022-09-17T19:23:47.982Z,0.80
2022-09-17T19:26:51.170Z,0.75
2022-09-17T19:29:57.852Z,0.80
2022-09-17T19:33:00.890Z,0.80
2022-09-17T19:36:06.319Z,0.80
2022-09-17T19:39:09.136Z,0.65
2022-09-17T19:42:11.986Z,0.80
2022-09-17T19:45:16.498Z,0.80
2022-09-17T19:48:23.200Z,0.60
2022-09-17T19:51:29.642Z,0.77
2022-09-17T19:54:32.479Z,0.77
2022-09-17T19:57:35.238Z,0.95
2022-09-17T20:00:39.853Z,0.73
2022-09-17T20:03:44.898Z,0.80
2022-09-17T20:06:47.874Z,1.00
2022-09-17T20:09:50.764Z,0.80
2022-09-17T20:12:53.638Z,0.80
2022-09-17T20:16:04.132Z,0.63
2022-09-17T20:19:08.001Z,0.70
2022-09-17T20:22:10.892Z,0.70
2022-09-17T20:25:13.715Z,0.70
2022-09-17T20:28:16.505Z,0.80
2022-09-17T20:31:22.724Z,0.80
2022-09-17T20:34:25.576Z,0.82
2022-09-17T20:38:18.458Z,0.70
2022-09-17T20:40:52.498Z,0.60
2022-09-17T20:43:55.976Z,0.73
2022-09-17T20:47:01.393Z,0.65
2022-09-17T20:50:04.445Z,0.80
2022-09-17T20:53:07.197Z,0.98
2022-09-17T20:56:11.892Z,0.88
2022-09-17T20:59:18.601Z,0.70
2022-09-17T21:02:23.270Z,0.70
2022-09-17T21:05:26.066Z,0.80
2022-09-17T21:08:29.070Z,0.63
2022-09-17T21:11:32.193Z,0.80
2022-09-17T21:14:35.074Z,0.70
2022-09-17T21:17:40.715Z,0.73
2022-09-17T21:20:43.494Z,0.80
2022-09-17T21:23:46.349Z,0.80
2022-09-17T21:26:51.299Z,1.00
2022-09-17T21:29:54.107Z,0.80
2022-09-17T21:33:00.029Z,0.75
2022-09-17T21:36:04.883Z,0.80
2022-09-17T21:39:12.260Z,0.93
2022-09-17T21:42:15.054Z,0.80
2022-09-17T21:45:18.215Z,0.75
2022-09-17T21:48:22.371Z,0.85
2022-09-17T21:51:30.256Z,0.90
2022-09-17T21:54:33.123Z,0.70
2022-09-17T21:57:35.917Z,0.70
2022-09-17T22:00:38.693Z,0.70
2022-09-17T22:03:43.864Z,0.70
2022-09-17T22:06:47.971Z,0.80
2022-09-17T22:09:51.253Z,0.70
2022-09-17T22:12:54.027Z,0.60
2022-09-17T22:15:57.710Z,0.52
2022-09-17T22:19:03.026Z,0.70
2022-09-17T22:22:05.921Z,0.70
2022-09-17T22:25:09.800Z,0.70
2022-09-17T22:28:21.062Z,0.80
2022-09-17T22:31:24.624Z,0.77
2022-09-17T22:34:29.717Z,0.77
2022-09-17T22:37:32.482Z,0.63
2022-09-17T22:40:37.065Z,0.60
2022-09-17T22:43:40.261Z,0.52
2022-09-17T22:46:43.645Z,0.93
2022-09-17T22:49:47.833Z,0.93
2022-09-17T22:52:50.651Z,0.70
2022-09-17T22:55:56.945Z,0.70
2022-09-17T22:59:00.380Z,0.75
2022-09-17T23:02:03.251Z,0.63
2022-09-17T23:05:07.825Z,0.65
2022-09-17T23:08:10.701Z,0.80
2022-09-17T23:11:18.260Z,1.08
2022-09-17T23:14:21.108Z,0.80
2022-09-17T23:17:28.650Z,0.80
2022-09-17T23:20:33.639Z,0.70
2022-09-17T23:23:37.851Z,0.90
2022-09-17T23:26:40.655Z,0.60
2022-09-17T23:29:43.602Z,0.88
2022-09-17T23:32:46.384Z,0.70
2022-09-17T23:35:50.889Z,0.65
2022-09-17T23:38:55.550Z,0.70
2022-09-17T23:41:58.387Z,0.80
2022-09-17T23:45:02.095Z,0.90
2022-09-17T23:48:04.951Z,0.60
2022-09-17T23:51:09.836Z,0.70
2022-09-17T23:54:12.731Z,0.70
2022-09-17T23:57:15.521Z,0.63
